Time;durP1;ratioP1;P1;durP2;ratioP2;P2;SDS_P1;SDS_P2;PMS_P1;PMS_P2;Temp;Humidity;BMP_temperature;BMP_pressure;BME280_temperature;BME280_humidity;BME280_pressure;Samples;Min_cycle;Max_cycle;Signal;HPM_P1;HPM_P2
2023/09/14 00:01:00;;;;;;;3.63;3.40;;;14.80;75.50;;;;;;6026204;29;20241;-80
2023/09/14 00:04:04;;;;;;;3.90;3.60;;;14.80;75.80;;;;;;6012538;29;20259;-82
2023/09/14 00:07:09;;;;;;;4.07;3.67;;;14.80;75.70;;;;;;6005750;29;20229;-83
2023/09/14 00:10:14;;;;;;;4.90;3.87;;;14.80;75.60;;;;;;6022318;29;20632;-83
2023/09/14 00:13:17;;;;;;;6.20;3.80;;;14.80;75.80;;;;;;6020625;29;20266;-83
2023/09/14 00:16:20;;;;;;;4.40;3.97;;;14.80;75.90;;;;;;6010138;29;20249;-83
2023/09/14 00:19:26;;;;;;;4.43;3.70;;;14.80;75.80;;;;;;6014746;29;20248;-85
2023/09/14 00:22:31;;;;;;;4.50;3.93;;;14.80;75.60;;;;;;5997560;29;20863;-84
2023/09/14 00:25:34;;;;;;;4.83;3.73;;;14.90;75.50;;;;;;6017779;29;20245;-82
2023/09/14 00:28:37;;;;;;;4.33;3.50;;;14.80;75.70;;;;;;6021116;29;20286;-84
2023/09/14 00:31:40;;;;;;;4.60;4.30;;;14.80;75.80;;;;;;6018442;29;20261;-80
2023/09/14 00:34:43;;;;;;;7.37;3.97;;;14.80;75.70;;;;;;6025925;29;20263;-85
2023/09/14 00:37:50;;;;;;;4.03;3.70;;;14.70;75.80;;;;;;6039610;29;20308;-75
2023/09/14 00:40:53;;;;;;;3.50;3.30;;;14.70;75.90;;;;;;6003128;29;20249;-82
2023/09/14 00:43:56;;;;;;;4.53;3.97;;;14.70;75.90;;;;;;6017747;29;20263;-77
2023/09/14 00:47:01;;;;;;;4.93;4.53;;;14.70;76.20;;;;;;6021595;29;20275;-85
2023/09/14 00:50:06;;;;;;;4.27;3.87;;;14.60;76.20;;;;;;6025440;29;20706;-81
2023/09/14 00:53:13;;;;;;;4.07;3.83;;;14.70;76.40;;;;;;6022818;29;20421;-84
2023/09/14 00:56:17;;;;;;;4.30;4.03;;;14.70;76.40;;;;;;6024031;29;20255;-83
2023/09/14 00:59:20;;;;;;;3.97;3.60;;;14.60;76.50;;;;;;6012649;29;20245;-80
2023/09/14 01:02:24;;;;;;;4.47;4.00;;;14.70;76.50;;;;;;6015358;29;20242;-80
2023/09/14 01:05:30;;;;;;;4.80;4.40;;;14.70;76.20;;;;;;6024695;29;20248;-80
2023/09/14 01:08:36;;;;;;;3.70;3.60;;;14.60;76.30;;;;;;6021337;29;20256;-83
2023/09/14 01:11:39;;;;;;;4.47;4.23;;;14.50;76.40;;;;;;6008903;29;20261;-81
2023/09/14 01:14:47;;;;;;;5.63;4.00;;;14.50;76.40;;;;;;6012890;29;20341;-82
2023/09/14 01:18:00;;;;;;;6.03;3.87;;;14.50;76.60;;;;;;6014328;29;20249;-82
2023/09/14 01:21:31;;;;;;;4.10;3.90;;;14.50;76.80;;;;;;6013639;29;20790;-80
2023/09/14 01:24:46;;;;;;;4.70;4.07;;;14.50;76.70;;;;;;6021534;29;20248;-84
2023/09/14 01:27:51;;;;;;;4.40;4.13;;;14.50;76.90;;;;;;6025492;29;20617;-81
2023/09/14 01:30:54;;;;;;;4.57;4.07;;;14.50;77.00;;;;;;6009374;29;20240;-85
2023/09/14 01:33:57;;;;;;;4.40;4.07;;;14.50;77.00;;;;;;6031759;29;20806;-83
2023/09/14 01:37:05;;;;;;;8.00;4.10;;;14.40;77.00;;;;;;6038019;29;20797;-78
2023/09/14 01:40:10;;;;;;;4.47;4.27;;;14.40;77.00;;;;;;6024597;29;20390;-82
2023/09/14 01:43:16;;;;;;;4.63;4.23;;;14.30;77.50;;;;;;6015032;29;20374;-83
2023/09/14 01:46:20;;;;;;;4.63;4.43;;;14.20;77.70;;;;;;6015852;29;20256;-85
2023/09/14 01:49:23;;;;;;;6.73;4.50;;;14.10;77.80;;;;;;6013388;29;20305;-82
2023/09/14 01:52:26;;;;;;;4.40;4.10;;;14.10;78.10;;;;;;6020560;29;20245;-82
2023/09/14 01:55:29;;;;;;;4.47;4.10;;;14.00;78.20;;;;;;6040552;29;20233;-81
2023/09/14 01:58:34;;;;;;;4.73;4.30;;;13.90;78.30;;;;;;6021860;29;20246;-80
2023/09/14 02:01:37;;;;;;;5.13;4.70;;;13.90;78.40;;;;;;6011053;29;20248;-81
2023/09/14 02:04:41;;;;;;;4.87;4.40;;;13.90;78.50;;;;;;6021035;29;20256;-80
2023/09/14 02:07:44;;;;;;;5.23;4.40;;;13.70;78.90;;;;;;6019581;29;20255;-82
2023/09/14 02:10:48;;;;;;;4.80;4.33;;;13.60;79.10;;;;;;6023195;29;20241;-84
2023/09/14 02:13:52;;;;;;;4.67;4.23;;;13.60;79.20;;;;;;6018588;29;20327;-82
2023/09/14 02:16:55;;;;;;;5.47;4.97;;;13.50;79.20;;;;;;6013633;29;20290;-82
2023/09/14 02:19:59;;;;;;;5.67;5.20;;;13.50;79.40;;;;;;6018174;29;20249;-82
2023/09/14 02:23:02;;;;;;;6.73;4.80;;;13.40;79.50;;;;;;6003919;29;20252;-82
2023/09/14 02:26:06;;;;;;;5.83;4.90;;;13.30;79.60;;;;;;6004480;29;20328;-85
2023/09/14 02:29:10;;;;;;;5.67;5.27;;;13.30;79.70;;;;;;6018292;29;20329;-84
2023/09/14 02:32:13;;;;;;;5.63;5.10;;;13.30;79.70;;;;;;6012193;29;20238;-82
2023/09/14 02:35:16;;;;;;;4.90;4.47;;;13.30;79.60;;;;;;6012445;29;20248;-79
2023/09/14 02:38:19;;;;;;;5.37;4.87;;;13.30;79.70;;;;;;6014094;29;20244;-80
2023/09/14 02:41:22;;;;;;;5.17;4.77;;;13.30;79.60;;;;;;6007974;29;20237;-80
2023/09/14 02:44:27;;;;;;;4.70;4.40;;;13.30;79.50;;;;;;6014063;29;20383;-82
2023/09/14 02:47:30;;;;;;;5.30;4.80;;;13.20;79.50;;;;;;6023777;29;20905;-82
2023/09/14 02:50:33;;;;;;;5.60;5.10;;;13.10;79.60;;;;;;6023435;29;20244;-83
2023/09/14 02:53:36;;;;;;;4.93;4.63;;;13.10;79.50;;;;;;6017343;29;20253;-84
2023/09/14 02:56:39;;;;;;;5.80;5.17;;;13.00;79.50;;;;;;6018982;29;20274;-80
2023/09/14 02:59:44;;;;;;;5.43;5.03;;;13.00;79.40;;;;;;6011254;29;20252;-83
2023/09/14 03:02:47;;;;;;;6.03;4.90;;;13.00;79.40;;;;;;6026233;29;20270;-81
2023/09/14 03:05:50;;;;;;;5.47;4.97;;;12.90;79.40;;;;;;6025065;29;20237;-80
2023/09/14 03:08:53;;;;;;;5.40;4.87;;;12.80;79.50;;;;;;6015232;29;20271;-81
2023/09/14 03:11:57;;;;;;;5.40;5.00;;;12.80;79.60;;;;;;6016284;29;20248;-82
2023/09/14 03:15:01;;;;;;;7.57;5.10;;;12.80;79.60;;;;;;6012916;29;20324;-82
2023/09/14 03:18:05;;;;;;;6.73;5.00;;;12.70;80.00;;;;;;6018860;29;20260;-81
2023/09/14 03:21:22;;;;;;;5.03;4.63;;;12.60;79.90;;;;;;6012020;29;20263;-83
2023/09/14 03:24:26;;;;;;;5.10;4.90;;;12.60;80.00;;;;;;6012634;29;20237;-84
2023/09/14 03:27:29;;;;;;;4.73;4.43;;;12.50;80.20;;;;;;6013212;29;20320;-81
2023/09/14 03:30:35;;;;;;;6.57;5.33;;;12.50;80.20;;;;;;6005475;29;20598;-80
2023/09/14 03:33:39;;;;;;;6.10;5.50;;;12.50;80.30;;;;;;6006697;29;20240;-82
2023/09/14 03:36:42;;;;;;;5.17;4.70;;;12.50;80.20;;;;;;6013106;29;20311;-82
2023/09/14 03:39:46;;;;;;;8.30;4.97;;;12.50;80.30;;;;;;6011469;29;20657;-82
2023/09/14 03:42:50;;;;;;;5.47;5.10;;;12.50;80.30;;;;;;6009404;29;20243;-80
2023/09/14 03:45:54;;;;;;;4.90;4.47;;;12.50;80.50;;;;;;6006742;29;20240;-82
2023/09/14 03:48:58;;;;;;;4.83;4.53;;;12.40;80.50;;;;;;6007419;29;20245;-82
2023/09/14 03:52:01;;;;;;;5.70;4.87;;;12.40;80.60;;;;;;6005015;29;20248;-79
2023/09/14 03:55:05;;;;;;;5.23;4.73;;;12.30;80.70;;;;;;6008911;29;20321;-83
2023/09/14 03:58:08;;;;;;;8.93;5.20;;;12.30;80.80;;;;;;6000929;29;20256;-83
2023/09/14 04:01:15;;;;;;;6.33;5.33;;;12.30;80.80;;;;;;6011113;29;20237;-81
2023/09/14 04:04:18;;;;;;;5.43;5.13;;;12.30;80.80;;;;;;6001836;29;20245;-78
2023/09/14 04:07:24;;;;;;;5.73;5.30;;;12.20;80.90;;;;;;6012295;29;20749;-81
2023/09/14 04:10:27;;;;;;;7.03;5.17;;;12.20;81.00;;;;;;6004836;29;20245;-81
2023/09/14 04:13:32;;;;;;;6.03;5.43;;;12.20;80.80;;;;;;6011025;29;20245;-80
2023/09/14 04:16:37;;;;;;;5.13;4.83;;;12.20;81.00;;;;;;6001555;29;20304;-80
2023/09/14 04:19:43;;;;;;;5.70;5.17;;;12.10;81.20;;;;;;6015223;29;20244;-79
2023/09/14 04:22:47;;;;;;;8.17;5.87;;;12.20;81.20;;;;;;6015020;29;20292;-82
2023/09/14 04:25:51;;;;;;;8.20;5.53;;;12.20;81.00;;;;;;6021703;29;20295;-77
2023/09/14 04:28:55;;;;;;;6.97;5.43;;;12.20;80.90;;;;;;6005796;29;20241;-77
2023/09/14 04:32:00;;;;;;;7.30;5.23;;;12.20;80.90;;;;;;6015652;29;20260;-78
2023/09/14 04:35:03;;;;;;;5.37;5.07;;;12.20;80.80;;;;;;6021958;29;20258;-79
2023/09/14 04:38:07;;;;;;;6.07;5.40;;;12.20;80.90;;;;;;6015613;29;20245;-80
2023/09/14 04:41:11;;;;;;;5.63;5.23;;;12.20;80.90;;;;;;6019736;29;20271;-79
2023/09/14 04:44:14;;;;;;;5.53;5.10;;;12.20;80.90;;;;;;6018636;29;20934;-80
2023/09/14 04:47:19;;;;;;;6.50;5.90;;;12.20;80.80;;;;;;6007988;29;20652;-80
2023/09/14 04:50:22;;;;;;;6.93;6.30;;;12.20;80.70;;;;;;6012367;29;20316;-80
2023/09/14 04:53:26;;;;;;;8.93;5.97;;;12.20;80.60;;;;;;6016095;29;20245;-80
2023/09/14 04:56:29;;;;;;;6.77;6.27;;;12.20;80.50;;;;;;6004142;29;20249;-82
2023/09/14 04:59:32;;;;;;;6.17;5.77;;;12.30;80.40;;;;;;6012880;29;20260;-81
2023/09/14 05:02:37;;;;;;;6.83;6.10;;;12.30;80.40;;;;;;6020777;29;20260;-79
2023/09/14 05:05:40;;;;;;;7.87;6.40;;;12.30;80.30;;;;;;6014727;29;20269;-78
2023/09/14 05:08:45;;;;;;;8.60;6.20;;;12.30;80.20;;;;;;6021614;29;20866;-80
2023/09/14 05:11:50;;;;;;;6.23;5.73;;;12.30;80.20;;;;;;6007721;29;20328;-80
2023/09/14 05:14:53;;;;;;;7.63;5.77;;;12.50;79.70;;;;;;6023285;29;20260;-80
2023/09/14 05:17:58;;;;;;;5.83;5.23;;;12.50;79.60;;;;;;6012391;29;20293;-80
2023/09/14 05:21:01;;;;;;;6.00;5.40;;;12.50;79.70;;;;;;6015006;29;20241;-79
2023/09/14 05:24:06;;;;;;;7.13;5.23;;;12.50;79.50;;;;;;6005375;29;20237;-80
2023/09/14 05:27:10;;;;;;;5.20;4.80;;;12.50;79.30;;;;;;6006772;29;20922;-80
2023/09/14 05:30:15;;;;;;;5.47;4.97;;;12.50;79.40;;;;;;6010311;29;20245;-79
2023/09/14 05:33:20;;;;;;;6.10;5.50;;;12.50;79.20;;;;;;6013496;29;20415;-82
2023/09/14 05:36:23;;;;;;;5.23;4.80;;;12.50;79.10;;;;;;6013294;29;20246;-81
2023/09/14 05:39:27;;;;;;;7.40;5.80;;;12.60;79.10;;;;;;6014689;29;20370;-80
2023/09/14 05:42:30;;;;;;;5.83;5.33;;;12.60;78.90;;;;;;6012503;29;20249;-81
2023/09/14 05:45:34;;;;;;;5.73;5.30;;;12.70;78.70;;;;;;6012632;29;20303;-79
2023/09/14 05:48:39;;;;;;;7.93;5.47;;;12.70;78.80;;;;;;6018075;29;20252;-79
2023/09/14 05:51:42;;;;;;;11.83;6.07;;;12.70;78.80;;;;;;6013980;29;20278;-78
2023/09/14 05:54:45;;;;;;;9.50;6.07;;;12.70;78.70;;;;;;6018954;29;20784;-78
2023/09/14 05:57:48;;;;;;;6.57;5.63;;;12.70;79.00;;;;;;6019320;29;20333;-77
2023/09/14 06:00:52;;;;;;;6.10;5.50;;;12.80;78.50;;;;;;6004962;29;20241;-77
2023/09/14 06:03:57;;;;;;;5.70;5.37;;;12.90;78.20;;;;;;6011763;29;20884;-79
2023/09/14 06:07:00;;;;;;;6.23;5.67;;;12.80;78.40;;;;;;6010946;29;20237;-81
2023/09/14 06:10:04;;;;;;;5.20;4.90;;;12.90;78.20;;;;;;6014159;29;20731;-81
2023/09/14 06:13:07;;;;;;;5.60;4.93;;;12.90;78.40;;;;;;6009425;29;20597;-78
2023/09/14 06:16:11;;;;;;;5.50;4.90;;;13.20;78.40;;;;;;6018968;29;20753;-79
2023/09/14 06:19:15;;;;;;;5.47;5.17;;;13.30;77.50;;;;;;6016314;29;20248;-81
2023/09/14 06:22:19;;;;;;;5.70;5.20;;;13.40;76.80;;;;;;6012277;29;20403;-79
2023/09/14 06:25:22;;;;;;;7.63;5.37;;;13.50;76.80;;;;;;6016194;29;20783;-81
2023/09/14 06:28:25;;;;;;;7.47;5.30;;;13.40;75.90;;;;;;6008144;29;20252;-81
2023/09/14 06:31:28;;;;;;;8.97;5.43;;;13.50;76.20;;;;;;6012521;29;20238;-82
2023/09/14 06:34:33;;;;;;;7.33;6.03;;;13.50;75.90;;;;;;6012609;29;20400;-80
2023/09/14 06:37:36;;;;;;;5.90;5.43;;;13.50;76.10;;;;;;6018661;29;20269;-78
2023/09/14 06:40:40;;;;;;;6.27;5.47;;;13.50;75.90;;;;;;6013195;29;20327;-79
2023/09/14 06:43:44;;;;;;;7.33;5.93;;;13.50;75.50;;;;;;6012783;29;20315;-79
2023/09/14 06:46:48;;;;;;;6.10;5.30;;;13.50;75.70;;;;;;6011520;29;20244;-80
2023/09/14 06:49:53;;;;;;;7.10;5.13;;;13.60;75.60;;;;;;6005475;29;20709;-80
2023/09/14 06:52:57;;;;;;;6.27;4.83;;;13.70;74.90;;;;;;6014326;29;20249;-82
2023/09/14 06:56:06;;;;;;;5.07;4.67;;;13.90;75.20;;;;;;6007726;29;20245;-79
2023/09/14 06:59:09;;;;;;;4.90;4.47;;;14.10;74.50;;;;;;6018908;29;20783;-81
2023/09/14 07:02:12;;;;;;;4.50;4.13;;;14.20;73.70;;;;;;6012016;29;20284;-80
2023/09/14 07:05:17;;;;;;;6.00;4.03;;;14.30;73.90;;;;;;6017032;29;20240;-80
2023/09/14 07:08:20;;;;;;;4.80;4.50;;;14.40;73.60;;;;;;5994493;29;20245;-79
2023/09/14 07:11:23;;;;;;;4.10;3.70;;;14.60;73.60;;;;;;6013377;29;20242;-81
2023/09/14 07:14:26;;;;;;;5.30;4.23;;;15.30;71.80;;;;;;6012148;29;20339;-80
2023/09/14 07:17:30;;;;;;;5.93;4.43;;;15.60;70.10;;;;;;5999641;29;20248;-79
2023/09/14 07:20:34;;;;;;;4.80;4.37;;;15.70;69.60;;;;;;6016426;29;20245;-80
2023/09/14 07:23:38;;;;;;;4.93;4.33;;;15.70;69.40;;;;;;6009541;29;20248;-79
2023/09/14 07:26:41;;;;;;;4.60;3.77;;;15.60;69.40;;;;;;6014610;29;20359;-79
2023/09/14 07:29:44;;;;;;;3.80;3.50;;;15.60;68.40;;;;;;6009918;29;20269;-80
2023/09/14 07:32:47;;;;;;;4.97;4.23;;;15.60;68.60;;;;;;6008101;29;20274;-81
2023/09/14 07:35:52;;;;;;;4.23;3.50;;;15.60;68.50;;;;;;6021499;29;20764;-81
2023/09/14 07:38:55;;;;;;;5.50;3.70;;;15.60;68.60;;;;;;6006651;29;20788;-81
2023/09/14 07:41:58;;;;;;;4.00;3.70;;;15.60;68.00;;;;;;6016972;29;20241;-78
2023/09/14 07:45:01;;;;;;;3.90;3.30;;;15.50;68.70;;;;;;6019406;29;20261;-77
2023/09/14 07:48:06;;;;;;;4.27;3.43;;;15.60;68.50;;;;;;6015144;29;20617;-80
2023/09/14 07:51:11;;;;;;;3.93;3.50;;;15.50;67.50;;;;;;6016806;29;20316;-80
2023/09/14 07:54:16;;;;;;;3.90;3.60;;;15.60;67.80;;;;;;6007051;29;20631;-78
2023/09/14 07:57:20;;;;;;;3.83;3.50;;;15.60;67.20;;;;;;6007171;29;20241;-79
2023/09/14 08:00:23;;;;;;;5.40;3.47;;;15.70;66.40;;;;;;5999480;29;20300;-80
2023/09/14 08:03:27;;;;;;;3.53;3.27;;;15.80;66.70;;;;;;6015309;29;20244;-80
2023/09/14 08:06:33;;;;;;;3.17;2.97;;;15.90;67.40;;;;;;6018547;29;20273;-81
2023/09/14 08:09:36;;;;;;;2.87;2.73;;;16.00;67.10;;;;;;6014529;29;20253;-78
2023/09/14 08:12:39;;;;;;;3.33;3.03;;;16.10;67.00;;;;;;6002832;29;20244;-79
2023/09/14 08:15:45;;;;;;;5.77;3.63;;;16.20;67.20;;;;;;6010804;29;20327;-79
2023/09/14 08:18:48;;;;;;;3.67;3.47;;;16.40;65.80;;;;;;6019970;29;20248;-79
2023/09/14 08:21:53;;;;;;;3.73;3.27;;;16.40;65.90;;;;;;6011432;29;20248;-79
2023/09/14 08:25:00;;;;;;;3.60;3.40;;;16.40;66.20;;;;;;6015617;29;20769;-81
2023/09/14 08:28:05;;;;;;;4.00;3.13;;;16.40;65.80;;;;;;6018655;29;20749;-78
2023/09/14 08:31:09;;;;;;;4.93;3.30;;;16.40;65.70;;;;;;6015122;29;20249;-78
2023/09/14 08:34:12;;;;;;;2.73;2.63;;;16.40;65.80;;;;;;6014305;29;20237;-81
2023/09/14 08:37:17;;;;;;;3.23;3.00;;;16.60;66.40;;;;;;6018759;29;20615;-78
2023/09/14 08:40:22;;;;;;;5.63;3.33;;;16.70;65.00;;;;;;6015995;29;20239;-80
2023/09/14 08:43:25;;;;;;;3.40;3.20;;;16.70;65.20;;;;;;6008107;29;20249;-78
2023/09/14 08:46:29;;;;;;;2.97;2.87;;;16.80;65.30;;;;;;6011271;29;20241;-79
2023/09/14 08:49:34;;;;;;;3.00;2.80;;;16.90;65.20;;;;;;6013646;29;20276;-81
2023/09/14 08:52:41;;;;;;;3.47;2.77;;;17.10;64.50;;;;;;6016729;29;20249;-78
2023/09/14 08:55:44;;;;;;;3.23;2.97;;;17.40;63.60;;;;;;6010857;29;20276;-80
2023/09/14 08:58:47;;;;;;;3.00;2.77;;;17.40;63.40;;;;;;6008912;29;20256;-75
2023/09/14 09:01:52;;;;;;;2.77;2.60;;;17.50;63.60;;;;;;6014720;29;20250;-79
2023/09/14 09:04:55;;;;;;;2.97;2.73;;;17.50;62.70;;;;;;6010818;29;20252;-79
2023/09/14 09:08:00;;;;;;;3.60;2.80;;;17.50;62.60;;;;;;6015099;29;20248;-78
2023/09/14 09:11:04;;;;;;;3.07;2.60;;;17.50;63.40;;;;;;6011206;29;20244;-77
2023/09/14 09:14:07;;;;;;;3.27;2.90;;;17.50;61.90;;;;;;6017122;29;20328;-77
2023/09/14 09:17:10;;;;;;;3.20;2.90;;;17.70;61.10;;;;;;6023053;29;20682;-76
2023/09/14 09:20:16;;;;;;;2.80;2.70;;;18.00;62.00;;;;;;6016326;29;20252;-77
2023/09/14 09:23:22;;;;;;;3.40;3.10;;;18.10;61.80;;;;;;6015767;29;20257;-78
2023/09/14 09:26:25;;;;;;;3.50;2.90;;;18.30;59.60;;;;;;6019505;29;20229;-78
2023/09/14 09:29:28;;;;;;;3.73;3.27;;;18.00;60.80;;;;;;6018613;29;20248;-78
2023/09/14 09:32:32;;;;;;;3.30;3.10;;;18.00;60.20;;;;;;6016042;29;20309;-79
2023/09/14 09:35:35;;;;;;;3.03;2.63;;;18.00;60.70;;;;;;6012539;29;20345;-79
2023/09/14 09:38:40;;;;;;;3.57;2.93;;;18.10;60.50;;;;;;6019552;29;20240;-77
2023/09/14 09:41:46;;;;;;;2.87;2.77;;;18.40;59.80;;;;;;6018350;29;20828;-79
2023/09/14 09:44:49;;;;;;;2.83;2.63;;;18.30;60.80;;;;;;6017443;29;20276;-79
2023/09/14 09:47:54;;;;;;;7.33;3.10;;;18.30;61.10;;;;;;6013482;29;20253;-78
2023/09/14 09:50:58;;;;;;;2.90;2.70;;;18.50;60.20;;;;;;6009174;29;20240;-79
2023/09/14 09:54:05;;;;;;;3.73;2.93;;;18.70;58.80;;;;;;6015262;29;20245;-79
2023/09/14 09:57:08;;;;;;;5.70;3.30;;;18.70;59.30;;;;;;6014492;29;20324;-78
2023/09/14 10:00:13;;;;;;;3.20;3.00;;;18.70;59.30;;;;;;6010473;29;20268;-79
2023/09/14 10:03:24;;;;;;;4.00;3.00;;;18.90;59.00;;;;;;6018291;29;20244;-78
2023/09/14 10:06:27;;;;;;;3.93;2.97;;;18.90;58.90;;;;;;6011366;29;20842;-79
2023/09/14 10:09:35;;;;;;;3.33;3.03;;;18.80;59.20;;;;;;6013865;29;20808;-77
2023/09/14 10:12:39;;;;;;;4.07;3.27;;;18.70;58.50;;;;;;6012643;29;20238;-79
2023/09/14 10:15:43;;;;;;;3.83;2.80;;;18.40;59.70;;;;;;6009267;29;20261;-78
2023/09/14 10:18:47;;;;;;;2.87;2.57;;;18.60;58.80;;;;;;6020442;29;20239;-80
2023/09/14 10:21:53;;;;;;;2.80;2.63;;;18.70;58.00;;;;;;6014672;29;20255;-81
2023/09/14 10:24:59;;;;;;;5.53;2.63;;;18.80;57.40;;;;;;6012504;29;20247;-77
2023/09/14 10:28:05;;;;;;;3.13;2.93;;;18.90;57.30;;;;;;6010361;29;20242;-79
2023/09/14 10:31:10;;;;;;;2.60;2.50;;;19.10;57.20;;;;;;6016336;29;20754;-75
2023/09/14 10:34:14;;;;;;;2.73;2.53;;;19.40;57.30;;;;;;6018804;29;20246;-79
2023/09/14 10:37:19;;;;;;;2.43;2.33;;;19.70;56.90;;;;;;6008543;29;20805;-78
2023/09/14 10:40:25;;;;;;;2.70;2.60;;;19.90;56.40;;;;;;6015164;29;20248;-79
2023/09/14 10:43:29;;;;;;;2.60;2.50;;;20.30;55.80;;;;;;6016512;29;20651;-78
2023/09/14 10:46:36;;;;;;;2.67;2.57;;;20.50;54.40;;;;;;6018529;29;20248;-82
2023/09/14 10:49:43;;;;;;;2.80;2.60;;;20.40;53.10;;;;;;6019496;29;20288;-80
2023/09/14 10:52:46;;;;;;;2.30;2.20;;;20.30;53.70;;;;;;6013548;29;20340;-77
2023/09/14 10:55:51;;;;;;;3.20;2.73;;;20.30;54.60;;;;;;6012620;29;20237;-79
2023/09/14 10:58:55;;;;;;;4.33;2.70;;;20.50;53.50;;;;;;6011562;29;20377;-79
2023/09/14 11:01:58;;;;;;;3.40;2.30;;;20.60;54.20;;;;;;6016595;29;20389;-80
2023/09/14 11:05:23;;;;;;;2.20;2.10;;;20.60;53.00;;;;;;6008746;29;20739;-77
2023/09/14 11:08:29;;;;;;;3.00;2.80;;;20.50;52.60;;;;;;6018415;29;20241;-78
2023/09/14 11:11:50;;;;;;;2.53;2.30;;;20.20;53.90;;;;;;6012130;29;20244;-80
2023/09/14 11:15:14;;;;;;;2.70;2.53;;;20.00;55.00;;;;;;6021040;29;20332;-79
2023/09/14 11:18:18;;;;;;;2.60;2.40;;;19.90;54.90;;;;;;6008827;29;20245;-79
2023/09/14 11:21:43;;;;;;;2.37;2.27;;;19.60;55.20;;;;;;6015800;29;20240;-80
2023/09/14 11:24:47;;;;;;;2.27;2.13;;;19.70;54.50;;;;;;6017581;29;20611;-81
2023/09/14 11:27:54;;;;;;;2.30;2.20;;;19.50;55.20;;;;;;6008171;29;20328;-81
2023/09/14 11:30:58;;;;;;;2.80;2.43;;;19.70;54.50;;;;;;6008639;29;20285;-79
2023/09/14 11:34:05;;;;;;;3.00;2.60;;;19.60;55.00;;;;;;6014965;29;20251;-78
2023/09/14 11:37:14;;;;;;;2.77;2.50;;;19.90;54.90;;;;;;6023691;29;20244;-80
2023/09/14 11:40:31;;;;;;;2.43;2.33;;;20.00;53.80;;;;;;6020515;29;20719;-79
2023/09/14 11:44:03;;;;;;;2.57;2.43;;;20.20;52.40;;;;;;6002311;29;20320;-77
2023/09/14 11:47:26;;;;;;;2.80;2.63;;;20.30;52.60;;;;;;6021696;29;20252;-78
2023/09/14 11:50:36;;;;;;;2.93;2.70;;;20.50;52.90;;;;;;6014098;29;20657;-77
2023/09/14 11:53:41;;;;;;;2.87;2.53;;;20.60;53.10;;;;;;6012255;29;20399;-78
2023/09/14 11:56:45;;;;;;;2.80;2.70;;;20.60;52.70;;;;;;6013133;29;20237;-78
2023/09/14 11:59:52;;;;;;;2.90;2.80;;;20.60;53.10;;;;;;6016359;29;20386;-79
2023/09/14 12:02:55;;;;;;;2.97;2.77;;;20.50;52.60;;;;;;6020722;29;20244;-80
2023/09/14 12:05:58;;;;;;;2.73;2.63;;;20.60;52.50;;;;;;6019110;29;20300;-77
2023/09/14 12:09:03;;;;;;;2.87;2.67;;;20.80;53.00;;;;;;6012626;29;20237;-77
2023/09/14 12:12:27;;;;;;;2.50;2.40;;;20.70;52.70;;;;;;6009162;29;20248;-80
2023/09/14 12:15:32;;;;;;;2.57;2.40;;;20.60;51.90;;;;;;6015488;29;20237;-77
2023/09/14 12:18:40;;;;;;;2.23;2.23;;;20.50;51.20;;;;;;6019364;29;20245;-78
2023/09/14 12:21:44;;;;;;;2.80;2.60;;;20.60;51.00;;;;;;6011743;29;20288;-80
2023/09/14 12:24:48;;;;;;;4.10;3.80;;;20.50;51.10;;;;;;6013009;29;20257;-79
2023/09/14 12:27:51;;;;;;;5.77;2.23;;;20.30;51.20;;;;;;6009235;29;20284;-80
2023/09/14 12:30:56;;;;;;;2.50;2.37;;;20.10;52.20;;;;;;6015565;29;20378;-82
2023/09/14 12:33:59;;;;;;;2.47;2.30;;;20.10;52.60;;;;;;6018516;29;20757;-79
2023/09/14 12:37:04;;;;;;;2.50;2.50;;;20.30;52.30;;;;;;6012353;29;20247;-82
2023/09/14 12:40:10;;;;;;;2.60;2.50;;;20.50;52.50;;;;;;6026395;29;20459;-79
2023/09/14 12:43:16;;;;;;;2.60;2.50;;;20.80;50.80;;;;;;6012907;29;20879;-77
2023/09/14 12:46:23;;;;;;;2.73;2.63;;;20.90;50.70;;;;;;6003308;29;20241;-80
2023/09/14 12:49:27;;;;;;;2.77;2.57;;;21.10;50.20;;;;;;6016172;29;20233;-79
2023/09/14 12:52:32;;;;;;;2.70;2.60;;;21.00;50.40;;;;;;6021730;29;20239;-80
2023/09/14 12:55:41;;;;;;;2.10;2.10;;;21.10;50.70;;;;;;6015264;29;20267;-81
2023/09/14 12:58:44;;;;;;;2.30;2.20;;;21.30;50.20;;;;;;6014267;29;20262;-78
2023/09/14 13:01:49;;;;;;;2.53;2.43;;;21.30;49.90;;;;;;6012653;29;20255;-77
2023/09/14 13:04:53;;;;;;;3.10;2.30;;;21.10;50.00;;;;;;6021019;29;20245;-77
2023/09/14 13:08:00;;;;;;;2.77;2.60;;;20.50;50.80;;;;;;6006114;29;20246;-79
2023/09/14 13:11:06;;;;;;;2.97;2.73;;;20.50;51.10;;;;;;6015039;29;20245;-79
2023/09/14 13:14:20;;;;;;;2.60;2.50;;;20.90;51.70;;;;;;6012285;29;20244;-79
2023/09/14 13:17:25;;;;;;;2.40;2.23;;;20.80;50.70;;;;;;6014899;29;25367;-81
2023/09/14 13:20:30;;;;;;;2.70;2.50;;;20.60;50.90;;;;;;6008632;29;20245;-80
2023/09/14 13:23:34;;;;;;;3.20;2.90;;;20.50;50.60;;;;;;6023058;29;20256;-78
2023/09/14 13:26:38;;;;;;;2.80;2.60;;;20.70;51.00;;;;;;6012296;29;20242;-78
2023/09/14 13:29:41;;;;;;;2.30;2.20;;;20.80;50.90;;;;;;6016839;29;20702;-78
2023/09/14 13:32:45;;;;;;;2.70;2.60;;;20.70;51.00;;;;;;6019469;29;20232;-79
2023/09/14 13:35:49;;;;;;;3.40;3.20;;;20.90;51.50;;;;;;6017191;29;20236;-78
2023/09/14 13:38:52;;;;;;;2.87;2.60;;;21.00;50.30;;;;;;6023502;29;20243;-79
2023/09/14 13:41:56;;;;;;;2.40;2.30;;;20.60;50.60;;;;;;6020491;29;20241;-81
2023/09/14 13:45:00;;;;;;;2.43;2.40;;;20.60;50.40;;;;;;6023872;29;20245;-79
2023/09/14 13:48:04;;;;;;;2.63;2.60;;;20.70;51.40;;;;;;6019013;29;20324;-80
2023/09/14 13:51:11;;;;;;;2.63;2.53;;;20.70;49.50;;;;;;6012963;29;20477;-77
2023/09/14 13:54:14;;;;;;;3.00;2.90;;;20.90;49.70;;;;;;6020733;29;20893;-76
2023/09/14 13:57:18;;;;;;;2.90;2.70;;;21.00;50.20;;;;;;6005341;29;20270;-77
2023/09/14 14:00:21;;;;;;;3.00;2.90;;;21.00;49.90;;;;;;6014198;29;20273;-77
2023/09/14 14:03:27;;;;;;;2.63;2.53;;;21.00;51.10;;;;;;6015545;29;20261;-77
2023/09/14 14:06:31;;;;;;;3.40;3.20;;;21.10;51.00;;;;;;6014659;29;20256;-76
2023/09/14 14:09:34;;;;;;;2.70;2.50;;;21.30;50.40;;;;;;6010818;29;20249;-79
2023/09/14 14:12:37;;;;;;;3.00;2.80;;;21.50;51.20;;;;;;6018653;29;20256;-77
2023/09/14 14:15:41;;;;;;;3.10;2.93;;;21.70;50.90;;;;;;6019226;29;20333;-78
2023/09/14 14:18:46;;;;;;;2.83;2.60;;;21.70;49.50;;;;;;6020911;29;20332;-77
2023/09/14 14:21:49;;;;;;;2.37;2.37;;;21.60;48.40;;;;;;6015593;29;20240;-77
2023/09/14 14:24:53;;;;;;;2.93;2.77;;;21.50;48.80;;;;;;6011026;29;20310;-77
2023/09/14 14:27:56;;;;;;;2.60;2.60;;;21.50;47.70;;;;;;6011439;29;20298;-76
2023/09/14 14:30:59;;;;;;;2.67;2.57;;;21.30;48.50;;;;;;6016106;29;20621;-77
2023/09/14 14:34:04;;;;;;;3.70;2.70;;;21.50;48.30;;;;;;6014455;29;20276;-78
2023/09/14 14:37:08;;;;;;;3.07;2.97;;;21.40;49.10;;;;;;6013210;29;20663;-78
2023/09/14 14:40:12;;;;;;;2.90;2.80;;;21.40;48.60;;;;;;6016429;29;20252;-80
2023/09/14 14:43:35;;;;;;;3.20;2.40;;;21.40;49.70;;;;;;6012697;29;20251;-80
2023/09/14 14:46:39;;;;;;;2.30;2.23;;;21.50;49.70;;;;;;6014291;29;20269;-79
2023/09/14 14:49:43;;;;;;;2.93;2.70;;;21.50;49.50;;;;;;6012223;29;20252;-80
2023/09/14 14:52:46;;;;;;;2.50;2.40;;;21.50;49.20;;;;;;6021484;29;20715;-78
2023/09/14 14:55:50;;;;;;;3.67;2.70;;;21.50;49.80;;;;;;6011409;29;20767;-76
2023/09/14 14:58:54;;;;;;;2.50;2.40;;;21.20;49.90;;;;;;6006663;29;20748;-79
2023/09/14 15:01:58;;;;;;;2.90;2.80;;;21.30;49.90;;;;;;6013981;29;20248;-79
2023/09/14 15:05:03;;;;;;;2.50;2.30;;;21.30;48.90;;;;;;6007487;29;20269;-78
2023/09/14 15:08:06;;;;;;;2.57;2.47;;;21.10;49.80;;;;;;6011748;29;20894;-81
2023/09/14 15:11:10;;;;;;;2.50;2.50;;;21.30;49.70;;;;;;6014199;29;20316;-82
2023/09/14 15:14:13;;;;;;;2.53;2.53;;;21.50;49.10;;;;;;6007814;29;20248;-80
2023/09/14 15:17:16;;;;;;;2.60;2.50;;;21.50;48.00;;;;;;6012755;29;20268;-79
2023/09/14 15:20:21;;;;;;;2.77;2.67;;;21.10;48.40;;;;;;6011546;29;20335;-79
2023/09/14 15:23:24;;;;;;;4.87;3.20;;;20.70;49.00;;;;;;6014985;29;20756;-85
2023/09/14 15:26:27;;;;;;;2.63;2.43;;;20.60;49.60;;;;;;6015087;29;20245;-81
2023/09/14 15:29:30;;;;;;;2.70;2.60;;;20.50;49.60;;;;;;6014615;29;20386;-79
2023/09/14 15:32:33;;;;;;;3.30;2.90;;;20.50;50.20;;;;;;6013886;29;20334;-80
2023/09/14 15:35:39;;;;;;;2.50;2.40;;;20.40;51.00;;;;;;6020559;29;20248;-81
2023/09/14 15:38:44;;;;;;;2.70;2.60;;;20.30;51.20;;;;;;6004040;29;20248;-79
2023/09/14 15:41:50;;;;;;;2.37;2.37;;;20.30;50.00;;;;;;6016050;29;20245;-79
2023/09/14 15:44:53;;;;;;;2.50;2.50;;;20.10;50.90;;;;;;6013285;29;20238;-79
2023/09/14 15:47:57;;;;;;;2.60;2.60;;;20.00;51.10;;;;;;6007905;29;20377;-79
2023/09/14 15:51:01;;;;;;;3.73;2.83;;;20.00;51.10;;;;;;6005874;29;20244;-79
2023/09/14 15:54:04;;;;;;;2.60;2.60;;;19.90;51.40;;;;;;6003923;29;20755;-78
2023/09/14 15:57:08;;;;;;;3.03;2.93;;;19.80;52.30;;;;;;6013419;29;20258;-81
2023/09/14 16:00:12;;;;;;;3.00;2.80;;;19.70;51.80;;;;;;6014022;29;20792;-82
2023/09/14 16:03:16;;;;;;;2.90;2.80;;;19.50;51.90;;;;;;6019160;29;20328;-76